<?xml version='1.0' encoding='UTF-8'?><gpx version="1.1" creator="JPX - https://github.com/jenetics/jpx" xmlns="http://www.topografix.com/GPX/1/1"><trk><trkseg><trkpt lat="45.76713404460555" lon="15.45419685978802"><ele>664.0</ele><time>2026-05-03T12:16:27Z</time></trkpt><trkpt lat="45.76712393010983" lon="15.45429218999226"><ele>664.0</ele><time>2026-05-03T12:16:28Z</time></trkpt><trkpt lat="45.76713169484753" lon="15.454431960698145"><ele>664.0</ele><time>2026-05-03T12:16:30Z</time></trkpt><trkpt lat="45.767123469280975" lon="15.454574923097843"><ele>664.0</ele><time>2026-05-03T12:16:32Z</time></trkpt><trkpt lat="45.76711514378759" lon="15.454716865089589"><ele>664.0</ele><time>2026-05-03T12:16:34Z</time></trkpt><trkpt lat="45.76710467320854" lon="15.454831191304972"><ele>664.0</ele><time>2026-05-03T12:16:36Z</time></trkpt><trkpt lat="45.76707846254553" lon="15.454956325480065"><ele>664.0</ele><time>2026-05-03T12:16:38Z</time></trkpt><trkpt lat="45.767048832389065" lon="15.45505744328843"><ele>664.0</ele><time>2026-05-03T12:16:40Z</time></trkpt><trkpt lat="45.7670162851623" lon="15.455150651802262"><ele>664.0</ele><time>2026-05-03T12:16:42Z</time></trkpt><trkpt lat="45.766983104992384" lon="15.455266736270769"><ele>664.0</ele><time>2026-05-03T12:16:44Z</time></trkpt><trkpt lat="45.766963169319666" lon="15.45540286865983"><ele>664.0</ele><time>2026-05-03T12:16:46Z</time></trkpt><trkpt lat="45.76693974696434" lon="15.4555638228044"><ele>664.0</ele><time>2026-05-03T12:16:48Z</time></trkpt><trkpt lat="45.766930341743794" lon="15.455657722666508"><ele>663.3333333333334</ele><time>2026-05-03T12:16:49Z</time></trkpt><trkpt lat="45.76691474927331" lon="15.455751333784313"><ele>662.6666666666667</ele><time>2026-05-03T12:16:50Z</time></trkpt><trkpt lat="45.76689788688059" lon="15.45585352347035"><ele>662.0</ele><time>2026-05-03T12:16:51Z</time></trkpt><trkpt lat="45.766886643293304" lon="15.455956179949084"><ele>661.3333333333334</ele><time>2026-05-03T12:16:52Z</time></trkpt><trkpt lat="45.76685464335517" lon="15.456056177690378"><ele>660.6666666666666</ele><time>2026-05-03T12:16:53Z</time></trkpt><trkpt lat="45.76685336297907" lon="15.456163759257642"><ele>660.0</ele><time>2026-05-03T12:16:54Z</time></trkpt><trkpt lat="45.76683152463185" lon="15.456324562241427"><ele>659.2</ele><time>2026-05-03T12:16:56Z</time></trkpt><trkpt lat="45.766824101306895" lon="15.456417215957988"><ele>658.4</ele><time>2026-05-03T12:16:59Z</time></trkpt><trkpt lat="45.76694751423306" lon="15.456452869805009"><ele>657.5999999999999</ele><time>2026-05-03T12:17:00Z</time></trkpt><trkpt lat="45.767045467629764" lon="15.456429054991311"><ele>656.8</ele><time>2026-05-03T12:17:02Z</time></trkpt><trkpt lat="45.76714982138518" lon="15.456403833650565"><ele>656.0</ele><time>2026-05-03T12:17:04Z</time></trkpt><trkpt lat="45.767212468067314" lon="15.4563775631592"><ele>656.0</ele><time>2026-05-03T12:17:05Z</time></trkpt><trkpt lat="45.767271503874376" lon="15.456329619723565"><ele>656.0</ele><time>2026-05-03T12:17:06Z</time></trkpt><trkpt lat="45.76732174008549" lon="15.456273610995027"><ele>656.0</ele><time>2026-05-03T12:17:07Z</time></trkpt><trkpt lat="45.767370875550746" lon="15.456140830882399"><ele>656.0</ele><time>2026-05-03T12:17:09Z</time></trkpt><trkpt lat="45.767379877393154" lon="15.455998202714511"><ele>656.0</ele><time>2026-05-03T12:17:11Z</time></trkpt><trkpt lat="45.767343501099774" lon="15.455864528779221"><ele>656.0</ele><time>2026-05-03T12:17:13Z</time></trkpt><trkpt lat="45.7673417959391" lon="15.45573827050373"><ele>656.6666666666666</ele><time>2026-05-03T12:17:15Z</time></trkpt><trkpt lat="45.76733859021339" lon="15.45563443879745"><ele>657.3333333333333</ele><time>2026-05-03T12:17:17Z</time></trkpt><trkpt lat="45.767405658768105" lon="15.455505803367693"><ele>658.0</ele><time>2026-05-03T12:17:19Z</time></trkpt><trkpt lat="45.76739589490919" lon="15.45535591028563"><ele>658.6666666666666</ele><time>2026-05-03T12:17:21Z</time></trkpt><trkpt lat="45.767405711411584" lon="15.455266572654404"><ele>659.3333333333334</ele><time>2026-05-03T12:17:22Z</time></trkpt><trkpt lat="45.767447602501015" lon="15.455178964223139"><ele>660.0</ele><time>2026-05-03T12:17:23Z</time></trkpt><trkpt lat="45.76747365915588" lon="15.455084314201013"><ele>660.6666666666666</ele><time>2026-05-03T12:17:24Z</time></trkpt><trkpt lat="45.76748776737403" lon="15.454973859292847"><ele>661.3333333333334</ele><time>2026-05-03T12:17:25Z</time></trkpt><trkpt lat="45.76753319652923" lon="15.454880048521431"><ele>662.0</ele><time>2026-05-03T12:17:26Z</time></trkpt><trkpt lat="45.76755636037334" lon="15.45477924290994"><ele>662.6666666666667</ele><time>2026-05-03T12:17:27Z</time></trkpt><trkpt lat="45.76756501045789" lon="15.454670308922474"><ele>663.3333333333334</ele><time>2026-05-03T12:17:28Z</time></trkpt><trkpt lat="45.76754599314163" lon="15.45456292425064"><ele>664.0</ele><time>2026-05-03T12:17:29Z</time></trkpt><trkpt lat="45.76753395596055" lon="15.454460315526665"><ele>664.0</ele><time>2026-05-03T12:17:30Z</time></trkpt><trkpt lat="45.767510849547534" lon="15.454365695471747"><ele>664.0</ele><time>2026-05-03T12:17:31Z</time></trkpt><trkpt lat="45.76747421240404" lon="15.45426549731806"><ele>664.0</ele><time>2026-05-03T12:17:32Z</time></trkpt><trkpt lat="45.767471789043036" lon="15.454154306377976"><ele>664.0</ele><time>2026-05-03T12:17:33Z</time></trkpt><trkpt lat="45.76744899125217" lon="15.45405090056112"><ele>664.0</ele><time>2026-05-03T12:17:34Z</time></trkpt><trkpt lat="45.7674684679958" lon="15.453948023354698"><ele>664.0</ele><time>2026-05-03T12:17:35Z</time></trkpt><trkpt lat="45.767515720259446" lon="15.453866869557435"><ele>664.0</ele><time>2026-05-03T12:17:36Z</time></trkpt><trkpt lat="45.76756862333346" lon="15.453798966842477"><ele>664.0</ele><time>2026-05-03T12:17:37Z</time></trkpt><trkpt lat="45.76762522039459" lon="15.453733993102942"><ele>664.0</ele><time>2026-05-03T12:17:38Z</time></trkpt><trkpt lat="45.767685369525054" lon="15.453677176585614"><ele>664.0</ele><time>2026-05-03T12:17:39Z</time></trkpt><trkpt lat="45.76775254430043" lon="15.453630471592332"><ele>664.0</ele><time>2026-05-03T12:17:40Z</time></trkpt><trkpt lat="45.76782832991845" lon="15.453626532272509"><ele>664.0</ele><time>2026-05-03T12:17:41Z</time></trkpt><trkpt lat="45.76790413779811" lon="15.453617100397736"><ele>664.0</ele><time>2026-05-03T12:17:42Z</time></trkpt><trkpt lat="45.76797967027801" lon="15.45361117842897"><ele>666.3333333333334</ele><time>2026-05-03T12:17:43Z</time></trkpt><trkpt lat="45.76805483354572" lon="15.453583052860049"><ele>668.6666666666667</ele><time>2026-05-03T12:17:44Z</time></trkpt><trkpt lat="45.768124816852" lon="15.453569158382214"><ele>671.0</ele><time>2026-05-03T12:17:45Z</time></trkpt><trkpt lat="45.768195059880874" lon="15.45352675976534"><ele>673.3333333333334</ele><time>2026-05-03T12:17:46.001Z</time></trkpt><trkpt lat="45.76825552159709" lon="15.45346478328648"><ele>675.6666666666666</ele><time>2026-05-03T12:17:47.001Z</time></trkpt><trkpt lat="45.76830255058056" lon="15.453374545332576"><ele>678.0</ele><time>2026-05-03T12:17:48.001Z</time></trkpt><trkpt lat="45.76832903722752" lon="15.453272330262969"><ele>678.0</ele><time>2026-05-03T12:17:49.001Z</time></trkpt><trkpt lat="45.768348546936544" lon="15.453173519948006"><ele>678.0</ele><time>2026-05-03T12:17:49.999Z</time></trkpt><trkpt lat="45.76837379177381" lon="15.453071657008003"><ele>678.0</ele><time>2026-05-03T12:17:50.999Z</time></trkpt><trkpt lat="45.768376042898474" lon="15.45295478375827"><ele>678.0</ele><time>2026-05-03T12:17:51.999Z</time></trkpt><trkpt lat="45.768373594965574" lon="15.452838060872509"><ele>678.0</ele><time>2026-05-03T12:17:52.999Z</time></trkpt><trkpt lat="45.7683650137738" lon="15.452719969873232"><ele>678.0</ele><time>2026-05-03T12:17:53.999Z</time></trkpt><trkpt lat="45.76834798047461" lon="15.45259808151403"><ele>678.3333333333334</ele><time>2026-05-03T12:17:54.999Z</time></trkpt><trkpt lat="45.76831867183667" lon="15.452476837780823"><ele>678.6666666666666</ele><time>2026-05-03T12:17:55.999Z</time></trkpt><trkpt lat="45.76827476420217" lon="15.452367600212627"><ele>679.0</ele><time>2026-05-03T12:17:56.999Z</time></trkpt><trkpt lat="45.76822365883655" lon="15.452261290789087"><ele>679.3333333333333</ele><time>2026-05-03T12:17:57.999Z</time></trkpt><trkpt lat="45.76816928680515" lon="15.452158287629542"><ele>679.6666666666666</ele><time>2026-05-03T12:17:58.999Z</time></trkpt><trkpt lat="45.76811550465421" lon="15.452059834569456"><ele>680.0</ele><time>2026-05-03T12:17:59.999Z</time></trkpt><trkpt lat="45.768052812379096" lon="15.451962999845529"><ele>681.8333333333333</ele><time>2026-05-03T12:18:00.999Z</time></trkpt><trkpt lat="45.767992247695794" lon="15.451873812692554"><ele>683.6666666666666</ele><time>2026-05-03T12:18:01.999Z</time></trkpt><trkpt lat="45.76792814054629" lon="15.451784519334625"><ele>685.5</ele><time>2026-05-03T12:18:02.999Z</time></trkpt><trkpt lat="45.76787827602027" lon="15.45167621372118"><ele>687.3333333333334</ele><time>2026-05-03T12:18:03.999Z</time></trkpt><trkpt lat="45.767818793933905" lon="15.451587304850113"><ele>689.1666666666667</ele><time>2026-05-03T12:18:04.999Z</time></trkpt><trkpt lat="45.76775999745614" lon="15.451489034698048"><ele>691.0</ele><time>2026-05-03T12:18:05.999Z</time></trkpt><trkpt lat="45.76767189438773" lon="15.45139037320906"><ele>688.8333333333334</ele><time>2026-05-03T12:18:06.999Z</time></trkpt><trkpt lat="45.7676307228196" lon="15.451278613166869"><ele>686.6666666666667</ele><time>2026-05-03T12:18:07.999Z</time></trkpt><trkpt lat="45.76758984340294" lon="15.451177681902877"><ele>684.5</ele><time>2026-05-03T12:18:08.999Z</time></trkpt><trkpt lat="45.76756064857825" lon="15.451062168933044"><ele>682.3333333333334</ele><time>2026-05-03T12:18:09.999Z</time></trkpt><trkpt lat="45.76754162419453" lon="15.450953188284496"><ele>680.1666666666666</ele><time>2026-05-03T12:18:10.999Z</time></trkpt><trkpt lat="45.76753751738463" lon="15.450849600249258"><ele>678.0</ele><time>2026-05-03T12:18:11.999Z</time></trkpt><trkpt lat="45.76752317538152" lon="15.450736941474362"><ele>678.0</ele><time>2026-05-03T12:18:12.999Z</time></trkpt><trkpt lat="45.767524048625084" lon="15.450627515281424"><ele>678.0</ele><time>2026-05-03T12:18:13.999Z</time></trkpt><trkpt lat="45.76753947695598" lon="15.450497219369357"><ele>678.0</ele><time>2026-05-03T12:18:14.999Z</time></trkpt><trkpt lat="45.767551621355416" lon="15.450390448025736"><ele>678.0</ele><time>2026-05-03T12:18:15.999Z</time></trkpt><trkpt lat="45.76754945859498" lon="15.45028242461089"><ele>678.0</ele><time>2026-05-03T12:18:16.999Z</time></trkpt><trkpt lat="45.767585893284" lon="15.450197178459947"><ele>678.0</ele><time>2026-05-03T12:18:17.999Z</time></trkpt><trkpt lat="45.76766460463528" lon="15.45017712666911"><ele>681.0</ele><time>2026-05-03T12:18:19.999Z</time></trkpt><trkpt lat="45.76766685661889" lon="15.45031183252936"><ele>684.0</ele><time>2026-05-03T12:18:22Z</time></trkpt><trkpt lat="45.767699964423784" lon="15.450439118650246"><ele>687.0</ele><time>2026-05-03T12:18:25Z</time></trkpt><trkpt lat="45.76773551920771" lon="15.450546957082956"><ele>690.0</ele><time>2026-05-03T12:18:27Z</time></trkpt><trkpt lat="45.76775989929934" lon="15.450707628967407"><ele>693.0</ele><time>2026-05-03T12:18:29Z</time></trkpt><trkpt lat="45.76778072561262" lon="15.450804487654171"><ele>695.8</ele><time>2026-05-03T12:18:30Z</time></trkpt><trkpt lat="45.76784180981706" lon="15.450947609230335"><ele>698.5999999999999</ele><time>2026-05-03T12:18:32Z</time></trkpt><trkpt lat="45.7679399810928" lon="15.451094240050036"><ele>701.4000000000001</ele><time>2026-05-03T12:18:34Z</time></trkpt><trkpt lat="45.76799987946152" lon="15.45115982350186"><ele>704.2</ele><time>2026-05-03T12:18:35Z</time></trkpt><trkpt lat="45.76805898494225" lon="15.451224777299785"><ele>707.0</ele><time>2026-05-03T12:18:36Z</time></trkpt><trkpt lat="45.76811567376175" lon="15.451284001128993"><ele>707.0</ele><time>2026-05-03T12:18:37Z</time></trkpt><trkpt lat="45.7681781618018" lon="15.45134486605655"><ele>707.0</ele><time>2026-05-03T12:18:38Z</time></trkpt><trkpt lat="45.76823916397795" lon="15.451394647846449"><ele>707.0</ele><time>2026-05-03T12:18:39Z</time></trkpt><trkpt lat="45.768299656203915" lon="15.451421240600787"><ele>707.0</ele><time>2026-05-03T12:18:40Z</time></trkpt><trkpt lat="45.76837836267232" lon="15.451398702189426"><ele>707.0</ele><time>2026-05-03T12:18:41Z</time></trkpt><trkpt lat="45.76842385750411" lon="15.451320878331787"><ele>707.0</ele><time>2026-05-03T12:18:43Z</time></trkpt><trkpt lat="45.76845197791138" lon="15.451231243816915"><ele>707.0</ele><time>2026-05-03T12:18:46Z</time></trkpt><trkpt lat="45.768526574660996" lon="15.45116046013866"><ele>709.3333333333333</ele><time>2026-05-03T12:18:48Z</time></trkpt><trkpt lat="45.76862893464459" lon="15.45114111425873"><ele>711.6666666666666</ele><time>2026-05-03T12:18:50Z</time></trkpt><trkpt lat="45.768729306437834" lon="15.451315639350474"><ele>714.0</ele><time>2026-05-03T12:18:51Z</time></trkpt><trkpt lat="45.768576418806546" lon="15.451079505816407"><ele>714.0</ele><time>2026-05-03T12:18:52Z</time></trkpt><trkpt lat="45.768856778478046" lon="15.451437091978503"><ele>714.0</ele><time>2026-05-03T12:18:54Z</time></trkpt><trkpt lat="45.76888702860225" lon="15.451590309215716"><ele>714.0</ele><time>2026-05-03T12:18:56Z</time></trkpt><trkpt lat="45.768930416900695" lon="15.451721582397829"><ele>714.0</ele><time>2026-05-03T12:18:58Z</time></trkpt><trkpt lat="45.768946352177345" lon="15.451883392683376"><ele>714.0</ele><time>2026-05-03T12:19:00Z</time></trkpt><trkpt lat="45.7690257536829" lon="15.4519918746507"><ele>714.0</ele><time>2026-05-03T12:19:02Z</time></trkpt><trkpt lat="45.769117562413655" lon="15.452050371343315"><ele>714.0</ele><time>2026-05-03T12:19:04Z</time></trkpt><trkpt lat="45.76921022997743" lon="15.452142086776876"><ele>712.1666666666666</ele><time>2026-05-03T12:19:06Z</time></trkpt><trkpt lat="45.76926475125003" lon="15.452189840320916"><ele>710.3333333333334</ele><time>2026-05-03T12:19:07Z</time></trkpt><trkpt lat="45.76932717491891" lon="15.452237405923357"><ele>708.5</ele><time>2026-05-03T12:19:08Z</time></trkpt><trkpt lat="45.76942447685421" lon="15.452279456869073"><ele>706.6666666666667</ele><time>2026-05-03T12:19:10Z</time></trkpt><trkpt lat="45.769527698657555" lon="15.452295797378378"><ele>704.8333333333334</ele><time>2026-05-03T12:19:12Z</time></trkpt><trkpt lat="45.769577700241896" lon="15.452362288581847"><ele>703.0</ele><time>2026-05-03T12:19:13Z</time></trkpt><trkpt lat="45.76961268919602" lon="15.452485944472805"><ele>706.5999999999999</ele><time>2026-05-03T12:19:15Z</time></trkpt><trkpt lat="45.7696485881203" lon="15.452606273143283"><ele>710.1999999999999</ele><time>2026-05-03T12:19:17Z</time></trkpt><trkpt lat="45.76969548499769" lon="15.452718779560875"><ele>713.8</ele><time>2026-05-03T12:19:19Z</time></trkpt><trkpt lat="45.7697690154281" lon="15.452838120508055"><ele>717.4</ele><time>2026-05-03T12:19:21Z</time></trkpt><trkpt lat="45.7698518443317" lon="15.452933480528733"><ele>721.0</ele><time>2026-05-03T12:19:23Z</time></trkpt><trkpt lat="45.769911364353035" lon="15.453061939223542"><ele>721.0</ele><time>2026-05-03T12:19:25Z</time></trkpt><trkpt lat="45.76993928695583" lon="15.453224973929302"><ele>721.0</ele><time>2026-05-03T12:19:27Z</time></trkpt><trkpt lat="45.76994769017127" lon="15.453368892884711"><ele>721.0</ele><time>2026-05-03T12:19:29Z</time></trkpt><trkpt lat="45.769973704904956" lon="15.453508972768116"><ele>721.0</ele><time>2026-05-03T12:19:31Z</time></trkpt><trkpt lat="45.77000636664608" lon="15.453650160819292"><ele>721.0</ele><time>2026-05-03T12:19:33Z</time></trkpt><trkpt lat="45.77005126353757" lon="15.453777810120467"><ele>721.5999999999999</ele><time>2026-05-03T12:19:35Z</time></trkpt><trkpt lat="45.7700724558711" lon="15.453925361036944"><ele>722.2</ele><time>2026-05-03T12:19:37Z</time></trkpt><trkpt lat="45.77008887521803" lon="15.454071091990697"><ele>722.8</ele><time>2026-05-03T12:19:39Z</time></trkpt><trkpt lat="45.77009686900066" lon="15.454160671900361"><ele>723.4000000000001</ele><time>2026-05-03T12:19:40Z</time></trkpt><trkpt lat="45.77015064655885" lon="15.454281635372817"><ele>724.0</ele><time>2026-05-03T12:19:42Z</time></trkpt><trkpt lat="45.7702366440034" lon="15.4543940087071"><ele>726.2</ele><time>2026-05-03T12:19:44Z</time></trkpt><trkpt lat="45.770328725040386" lon="15.454457451299914"><ele>728.4000000000001</ele><time>2026-05-03T12:19:46.001Z</time></trkpt><trkpt lat="45.77043816742736" lon="15.454513667976316"><ele>730.6</ele><time>2026-05-03T12:19:48.001Z</time></trkpt><trkpt lat="45.77049978556744" lon="15.454539563202498"><ele>732.8</ele><time>2026-05-03T12:19:49.001Z</time></trkpt><trkpt lat="45.77061044395678" lon="15.454571769476674"><ele>735.0</ele><time>2026-05-03T12:19:51.001Z</time></trkpt><trkpt lat="45.77072367466758" lon="15.454597979355025"><ele>734.75</ele><time>2026-05-03T12:19:53.001Z</time></trkpt><trkpt lat="45.770848661777805" lon="15.454621283703743"><ele>734.5</ele><time>2026-05-03T12:19:55.001Z</time></trkpt><trkpt lat="45.77097182921339" lon="15.454652920338091"><ele>734.25</ele><time>2026-05-03T12:19:56.998Z</time></trkpt><trkpt lat="45.771091762454596" lon="15.454637533781737"><ele>734.0</ele><time>2026-05-03T12:19:58.998Z</time></trkpt><trkpt lat="45.77120898306077" lon="15.454633463060844"><ele>734.0</ele><time>2026-05-03T12:20:00.998Z</time></trkpt><trkpt lat="45.77132254484499" lon="15.454654724415935"><ele>734.0</ele><time>2026-05-03T12:20:02.998Z</time></trkpt><trkpt lat="45.77138859786469" lon="15.45465589063267"><ele>734.0</ele><time>2026-05-03T12:20:03.998Z</time></trkpt><trkpt lat="45.77149551460433" lon="15.454651615393658"><ele>734.0</ele><time>2026-05-03T12:20:05.998Z</time></trkpt><trkpt lat="45.771590637501674" lon="15.45467815868809"><ele>734.0</ele><time>2026-05-03T12:20:07.998Z</time></trkpt><trkpt lat="45.77166068928338" lon="15.454716088208647"><ele>734.0</ele><time>2026-05-03T12:20:08.998Z</time></trkpt><trkpt lat="45.77173338299236" lon="15.454730878600522"><ele>734.0</ele><time>2026-05-03T12:20:09.999Z</time></trkpt><trkpt lat="45.771797453769906" lon="15.454752512769437"><ele>734.0</ele><time>2026-05-03T12:20:10.999Z</time></trkpt><trkpt lat="45.77191209993913" lon="15.454774147353858"><ele>734.0</ele><time>2026-05-03T12:20:12.999Z</time></trkpt><trkpt lat="45.77202178638133" lon="15.454794768389094"><ele>734.0</ele><time>2026-05-03T12:20:14.999Z</time></trkpt><trkpt lat="45.77212983046745" lon="15.454810871179818"><ele>734.0</ele><time>2026-05-03T12:20:16.999Z</time></trkpt><trkpt lat="45.77223887261037" lon="15.454849656218123"><ele>734.0</ele><time>2026-05-03T12:20:18.999Z</time></trkpt><trkpt lat="45.772337067046834" lon="15.454932473189558"><ele>734.0</ele><time>2026-05-03T12:20:20.999Z</time></trkpt><trkpt lat="45.772428579116784" lon="15.455019146231573"><ele>734.0</ele><time>2026-05-03T12:20:22.999Z</time></trkpt><trkpt lat="45.77250694584942" lon="15.455102988489346"><ele>734.0</ele><time>2026-05-03T12:20:24.999Z</time></trkpt><trkpt lat="45.772606075715984" lon="15.455173990838947"><ele>735.4000000000001</ele><time>2026-05-03T12:20:26.999Z</time></trkpt><trkpt lat="45.77272663023657" lon="15.455180243466504"><ele>736.8</ele><time>2026-05-03T12:20:28.999Z</time></trkpt><trkpt lat="45.77284707230021" lon="15.455214171811331"><ele>738.2</ele><time>2026-05-03T12:20:30.999Z</time></trkpt><trkpt lat="45.77290992850207" lon="15.455247657091162"><ele>739.5999999999999</ele><time>2026-05-03T12:20:31.999Z</time></trkpt><trkpt lat="45.77301953644737" lon="15.455308205436994"><ele>741.0</ele><time>2026-05-03T12:20:33.999Z</time></trkpt><trkpt lat="45.77307485954322" lon="15.45536921580988"><ele>741.0</ele><time>2026-05-03T12:20:35Z</time></trkpt><trkpt lat="45.7731279710233" lon="15.455428631070635"><ele>741.0</ele><time>2026-05-03T12:20:36Z</time></trkpt><trkpt lat="45.77320205347611" lon="15.455554320251675"><ele>741.0</ele><time>2026-05-03T12:20:38Z</time></trkpt><trkpt lat="45.77326377569499" lon="15.45569150869382"><ele>741.0</ele><time>2026-05-03T12:20:40Z</time></trkpt><trkpt lat="45.7733610099218" lon="15.4557854804922"><ele>741.0</ele><time>2026-05-03T12:20:42Z</time></trkpt><trkpt lat="45.77345600945303" lon="15.455852937548503"><ele>741.8</ele><time>2026-05-03T12:20:44Z</time></trkpt><trkpt lat="45.77357114409981" lon="15.45590932804616"><ele>742.5999999999999</ele><time>2026-05-03T12:20:46Z</time></trkpt><trkpt lat="45.77363196680522" lon="15.455932680354117"><ele>743.4</ele><time>2026-05-03T12:20:47Z</time></trkpt><trkpt lat="45.77375752989017" lon="15.4559685291154"><ele>744.2</ele><time>2026-05-03T12:20:49Z</time></trkpt><trkpt lat="45.773862251644175" lon="15.456018498035238"><ele>745.0</ele><time>2026-05-03T12:20:51Z</time></trkpt><trkpt lat="45.77395943586942" lon="15.456071762328197"><ele>745.0</ele><time>2026-05-03T12:20:53Z</time></trkpt><trkpt lat="45.77405380698042" lon="15.456126586432203"><ele>745.0</ele><time>2026-05-03T12:20:55Z</time></trkpt><trkpt lat="45.77412945217792" lon="15.456206537504533"><ele>745.0</ele><time>2026-05-03T12:20:57Z</time></trkpt><trkpt lat="45.77420628442921" lon="15.456321811734785"><ele>745.0</ele><time>2026-05-03T12:20:59Z</time></trkpt><trkpt lat="45.77429798239433" lon="15.456434552625378"><ele>745.0</ele><time>2026-05-03T12:21:01Z</time></trkpt><trkpt lat="45.77434720441564" lon="15.456497492196128"><ele>745.2857142857142</ele><time>2026-05-03T12:21:02Z</time></trkpt><trkpt lat="45.77439962263168" lon="15.456554192823175"><ele>745.5714285714286</ele><time>2026-05-03T12:21:03Z</time></trkpt><trkpt lat="45.774457968720874" lon="15.456611037074907"><ele>745.8571428571429</ele><time>2026-05-03T12:21:04Z</time></trkpt><trkpt lat="45.77451784640651" lon="15.45665692134263"><ele>746.1428571428571</ele><time>2026-05-03T12:21:05Z</time></trkpt><trkpt lat="45.77458308872466" lon="15.456695316063309"><ele>746.4285714285714</ele><time>2026-05-03T12:21:06Z</time></trkpt><trkpt lat="45.77464480696555" lon="15.456720528167036"><ele>746.7142857142857</ele><time>2026-05-03T12:21:07Z</time></trkpt><trkpt lat="45.77471128845751" lon="15.456717711478598"><ele>747.0</ele><time>2026-05-03T12:21:08Z</time></trkpt><trkpt lat="45.77483330584836" lon="15.45671089120995"><ele>747.0</ele><time>2026-05-03T12:21:10Z</time></trkpt><trkpt lat="45.77494430272567" lon="15.456661082634007"><ele>747.0</ele><time>2026-05-03T12:21:12Z</time></trkpt><trkpt lat="45.775051742593305" lon="15.456592787759853"><ele>747.0</ele><time>2026-05-03T12:21:14Z</time></trkpt><trkpt lat="45.775146637008675" lon="15.45650963247078"><ele>747.0</ele><time>2026-05-03T12:21:16Z</time></trkpt><trkpt lat="45.7752380966926" lon="15.456424801771252"><ele>750.25</ele><time>2026-05-03T12:21:18Z</time></trkpt><trkpt lat="45.775302627123494" lon="15.456298281438256"><ele>753.5</ele><time>2026-05-03T12:21:20Z</time></trkpt><trkpt lat="45.77536742673521" lon="15.456159975293065"><ele>756.75</ele><time>2026-05-03T12:21:22Z</time></trkpt><trkpt lat="45.77543237369143" lon="15.45602293139605"><ele>760.0</ele><time>2026-05-03T12:21:24Z</time></trkpt><trkpt lat="45.775498104647454" lon="15.455886230181141"><ele>760.0</ele><time>2026-05-03T12:21:26Z</time></trkpt><trkpt lat="45.77555702492157" lon="15.455747277297997"><ele>760.0</ele><time>2026-05-03T12:21:28Z</time></trkpt><trkpt lat="45.77561845069181" lon="15.455637624691914"><ele>760.0</ele><time>2026-05-03T12:21:30Z</time></trkpt><trkpt lat="45.775699059588156" lon="15.455521670449816"><ele>760.0</ele><time>2026-05-03T12:21:32.001Z</time></trkpt><trkpt lat="45.77579025636852" lon="15.455424314867683"><ele>760.0</ele><time>2026-05-03T12:21:34.001Z</time></trkpt><trkpt lat="45.77586340863978" lon="15.455288831390117"><ele>759.0</ele><time>2026-05-03T12:21:36.001Z</time></trkpt><trkpt lat="45.77591681798244" lon="15.455169947901217"><ele>758.0</ele><time>2026-05-03T12:21:38.001Z</time></trkpt><trkpt lat="45.775918862253306" lon="15.455022595614697"><ele>757.0</ele><time>2026-05-03T12:21:40.001Z</time></trkpt><trkpt lat="45.77587828085076" lon="15.45490199067538"><ele>756.0</ele><time>2026-05-03T12:21:42.001Z</time></trkpt><trkpt lat="45.77582328213497" lon="15.454798647894826"><ele>755.0</ele><time>2026-05-03T12:21:44.001Z</time></trkpt><trkpt lat="45.77579051684686" lon="15.454708835558856"><ele>756.0</ele><time>2026-05-03T12:21:46.001Z</time></trkpt><trkpt lat="45.77575171090132" lon="15.45460707798834"><ele>757.0</ele><time>2026-05-03T12:22:02.998Z</time></trkpt><trkpt lat="45.77568413577158" lon="15.454487352551345"><ele>758.0</ele><time>2026-05-03T12:22:04.998Z</time></trkpt><trkpt lat="45.77561244891075" lon="15.45433452478698"><ele>759.0</ele><time>2026-05-03T12:22:06.998Z</time></trkpt><trkpt lat="45.77554004160266" lon="15.454204151075066"><ele>760.0</ele><time>2026-05-03T12:22:08.998Z</time></trkpt><trkpt lat="45.77547421210303" lon="15.454082087497042"><ele>760.0</ele><time>2026-05-03T12:22:10.998Z</time></trkpt><trkpt lat="45.77541465936182" lon="15.453951784847282"><ele>760.0</ele><time>2026-05-03T12:22:12.998Z</time></trkpt><trkpt lat="45.77535019321367" lon="15.453792340062293"><ele>760.0</ele><time>2026-05-03T12:22:14.998Z</time></trkpt><trkpt lat="45.77531040320289" lon="15.453721932938755"><ele>760.0</ele><time>2026-05-03T12:22:15.998Z</time></trkpt><trkpt lat="45.775302252881524" lon="15.453563864682529"><ele>760.0</ele><time>2026-05-03T12:22:17.998Z</time></trkpt><trkpt lat="45.77528818390573" lon="15.453473609182383"><ele>760.8</ele><time>2026-05-03T12:22:18.999Z</time></trkpt><trkpt lat="45.77527585428247" lon="15.453301544129706"><ele>761.6</ele><time>2026-05-03T12:22:20.999Z</time></trkpt><trkpt lat="45.77525263109694" lon="15.453121324160657"><ele>762.4000000000001</ele><time>2026-05-03T12:22:22.999Z</time></trkpt><trkpt lat="45.77521060478265" lon="15.452972778933281"><ele>763.2</ele><time>2026-05-03T12:22:24.999Z</time></trkpt><trkpt lat="45.77519544678492" lon="15.452879865986805"><ele>764.0</ele><time>2026-05-03T12:22:25.999Z</time></trkpt><trkpt lat="45.7751612868255" lon="15.452723068846032"><ele>766.4000000000001</ele><time>2026-05-03T12:22:27.999Z</time></trkpt><trkpt lat="45.77514015018689" lon="15.452636764858918"><ele>768.8</ele><time>2026-05-03T12:22:28.999Z</time></trkpt><trkpt lat="45.77513933546768" lon="15.45245589229896"><ele>771.2</ele><time>2026-05-03T12:22:30.999Z</time></trkpt><trkpt lat="45.77508506418207" lon="15.452302165270078"><ele>773.5999999999999</ele><time>2026-05-03T12:22:32.999Z</time></trkpt><trkpt lat="45.775021320625235" lon="15.45214636450491"><ele>776.0</ele><time>2026-05-03T12:22:34.999Z</time></trkpt><trkpt lat="45.77498563731052" lon="15.452002357239767"><ele>777.0</ele><time>2026-05-03T12:22:36.999Z</time></trkpt><trkpt lat="45.77490499465427" lon="15.4518513722551"><ele>778.0</ele><time>2026-05-03T12:22:38.999Z</time></trkpt><trkpt lat="45.77488368138659" lon="15.451681653005794"><ele>779.0</ele><time>2026-05-03T12:22:40.999Z</time></trkpt><trkpt lat="45.77486412066828" lon="15.45150579071712"><ele>780.0</ele><time>2026-05-03T12:22:43Z</time></trkpt><trkpt lat="45.774857891743146" lon="15.451411413800377"><ele>781.0</ele><time>2026-05-03T12:22:44Z</time></trkpt><trkpt lat="45.77483426977799" lon="15.451312093425317"><ele>781.2857142857143</ele><time>2026-05-03T12:22:45Z</time></trkpt><trkpt lat="45.77481402389741" lon="15.451204708086706"><ele>781.5714285714287</ele><time>2026-05-03T12:22:46Z</time></trkpt><trkpt lat="45.77479346550381" lon="15.45110687792744"><ele>781.8571428571429</ele><time>2026-05-03T12:22:47Z</time></trkpt><trkpt lat="45.77477097289762" lon="15.451010694499523"><ele>782.1428571428571</ele><time>2026-05-03T12:22:48Z</time></trkpt><trkpt lat="45.77474736179848" lon="15.450915096116997"><ele>782.4285714285714</ele><time>2026-05-03T12:22:49Z</time></trkpt><trkpt lat="45.77475144010627" lon="15.450818746837157"><ele>782.7142857142857</ele><time>2026-05-03T12:22:50Z</time></trkpt><trkpt lat="45.7747453600208" lon="15.450722117527002"><ele>783.0</ele><time>2026-05-03T12:22:51Z</time></trkpt><trkpt lat="45.77471683760274" lon="15.450558372101723"><ele>783.0</ele><time>2026-05-03T12:22:53Z</time></trkpt><trkpt lat="45.774680465915516" lon="15.450478797213869"><ele>783.0</ele><time>2026-05-03T12:22:54Z</time></trkpt><trkpt lat="45.774642568860756" lon="15.45040443775073"><ele>783.0</ele><time>2026-05-03T12:22:55Z</time></trkpt><trkpt lat="45.774588019268954" lon="15.450329643785508"><ele>783.0</ele><time>2026-05-03T12:22:56Z</time></trkpt><trkpt lat="45.77451193492106" lon="15.450286601350683"><ele>783.0</ele><time>2026-05-03T12:22:57Z</time></trkpt><trkpt lat="45.77444890470474" lon="15.450254494072038"><ele>783.0</ele><time>2026-05-03T12:22:58Z</time></trkpt><trkpt lat="45.77434856482653" lon="15.450139579864498"><ele>783.4</ele><time>2026-05-03T12:23:00Z</time></trkpt><trkpt lat="45.77427678893428" lon="15.45009171688385"><ele>783.8</ele><time>2026-05-03T12:23:01Z</time></trkpt><trkpt lat="45.77416529611419" lon="15.450035797699336"><ele>784.2</ele><time>2026-05-03T12:23:03Z</time></trkpt><trkpt lat="45.77408663933635" lon="15.44998294667312"><ele>784.6</ele><time>2026-05-03T12:23:04Z</time></trkpt><trkpt lat="45.77397575070588" lon="15.449885158533533"><ele>785.0</ele><time>2026-05-03T12:23:06Z</time></trkpt><trkpt lat="45.77390287449846" lon="15.449847714630504"><ele>785.0</ele><time>2026-05-03T12:23:07Z</time></trkpt><trkpt lat="45.77383705277911" lon="15.449797280875622"><ele>785.0</ele><time>2026-05-03T12:23:08Z</time></trkpt><trkpt lat="45.77377926814113" lon="15.449751323949846"><ele>785.0</ele><time>2026-05-03T12:23:09Z</time></trkpt><trkpt lat="45.77366386260019" lon="15.449686407997179"><ele>785.0</ele><time>2026-05-03T12:23:11Z</time></trkpt><trkpt lat="45.77357227425864" lon="15.449684480314506"><ele>785.0</ele><time>2026-05-03T12:23:13Z</time></trkpt><trkpt lat="45.77348206205831" lon="15.44963174226173"><ele>785.0</ele><time>2026-05-03T12:23:14Z</time></trkpt><trkpt lat="45.77341904694051" lon="15.44960666802444"><ele>785.0</ele><time>2026-05-03T12:23:15Z</time></trkpt><trkpt lat="45.773296845055924" lon="15.449586901070314"><ele>785.0</ele><time>2026-05-03T12:23:17Z</time></trkpt><trkpt lat="45.77319296236799" lon="15.449546275446497"><ele>785.0</ele><time>2026-05-03T12:23:19Z</time></trkpt><trkpt lat="45.7731152274535" lon="15.449503725476326"><ele>785.0</ele><time>2026-05-03T12:23:20Z</time></trkpt><trkpt lat="45.77299628700142" lon="15.449441851775576"><ele>785.0</ele><time>2026-05-03T12:23:22Z</time></trkpt><trkpt lat="45.77292741633711" lon="15.449403230897534"><ele>785.0</ele><time>2026-05-03T12:23:23Z</time></trkpt><trkpt lat="45.77286285793051" lon="15.449372677440635"><ele>785.0</ele><time>2026-05-03T12:23:24.001Z</time></trkpt><trkpt lat="45.77280353830138" lon="15.449327317606041"><ele>785.0</ele><time>2026-05-03T12:23:25.001Z</time></trkpt><trkpt lat="45.77275506761917" lon="15.449264060563575"><ele>785.0</ele><time>2026-05-03T12:23:26.001Z</time></trkpt><trkpt lat="45.77270443856904" lon="15.449198170970885"><ele>785.0</ele><time>2026-05-03T12:23:27.001Z</time></trkpt><trkpt lat="45.77266146317754" lon="15.449121480951835"><ele>785.0</ele><time>2026-05-03T12:23:28.001Z</time></trkpt><trkpt lat="45.77261796954695" lon="15.449049298946637"><ele>786.0000000000001</ele><time>2026-05-03T12:23:29.001Z</time></trkpt><trkpt lat="45.77257844784427" lon="15.448974857190947"><ele>787.0</ele><time>2026-05-03T12:23:30.001Z</time></trkpt><trkpt lat="45.77254651872995" lon="15.448896758872566"><ele>788.0</ele><time>2026-05-03T12:23:31.001Z</time></trkpt><trkpt lat="45.77251589457101" lon="15.448815285897773"><ele>789.0</ele><time>2026-05-03T12:23:32.001Z</time></trkpt><trkpt lat="45.772483461253614" lon="15.448730880177438"><ele>790.0000000000001</ele><time>2026-05-03T12:23:33.001Z</time></trkpt><trkpt lat="45.77240966989159" lon="15.44859592844004"><ele>791.0</ele><time>2026-05-03T12:23:35.001Z</time></trkpt><trkpt lat="45.77233913114777" lon="15.448488995047299"><ele>791.5999999999999</ele><time>2026-05-03T12:23:37.001Z</time></trkpt><trkpt lat="45.77230589131291" lon="15.448406847750853"><ele>792.2</ele><time>2026-05-03T12:23:38.001Z</time></trkpt><trkpt lat="45.77227188419932" lon="15.448328478603784"><ele>792.8</ele><time>2026-05-03T12:23:39.001Z</time></trkpt><trkpt lat="45.77220928386239" lon="15.448202105357753"><ele>793.4000000000001</ele><time>2026-05-03T12:23:41.001Z</time></trkpt><trkpt lat="45.77215568511365" lon="15.448048040171981"><ele>794.0</ele><time>2026-05-03T12:23:43.001Z</time></trkpt><trkpt lat="45.77208500682981" lon="15.447925362532372"><ele>795.0</ele><time>2026-05-03T12:23:45.001Z</time></trkpt><trkpt lat="45.77205214345096" lon="15.447775845858324"><ele>796.0</ele><time>2026-05-03T12:23:47.001Z</time></trkpt><trkpt lat="45.77202160072965" lon="15.447622964644982"><ele>797.0</ele><time>2026-05-03T12:23:49.001Z</time></trkpt><trkpt lat="45.77199622330591" lon="15.447469535627206"><ele>798.0</ele><time>2026-05-03T12:23:51.001Z</time></trkpt><trkpt lat="45.7719940555641" lon="15.44737721607985"><ele>799.0</ele><time>2026-05-03T12:23:52.001Z</time></trkpt><trkpt lat="45.77198897460585" lon="15.44720744723478"><ele>801.0</ele><time>2026-05-03T12:23:54.001Z</time></trkpt><trkpt lat="45.77196532513126" lon="15.447053938358762"><ele>803.0</ele><time>2026-05-03T12:23:56.001Z</time></trkpt><trkpt lat="45.77194870915248" lon="15.446896154004973"><ele>805.0</ele><time>2026-05-03T12:23:58.001Z</time></trkpt><trkpt lat="45.771937889424464" lon="15.446806239373448"><ele>807.0</ele><time>2026-05-03T12:23:59.001Z</time></trkpt><trkpt lat="45.771913237367215" lon="15.446631494597714"><ele>809.0</ele><time>2026-05-03T12:24:01.001Z</time></trkpt><trkpt lat="45.77190374634457" lon="15.446542110787542"><ele>809.0</ele><time>2026-05-03T12:24:02.001Z</time></trkpt><trkpt lat="45.77188989179744" lon="15.446453728867164"><ele>809.0</ele><time>2026-05-03T12:24:03.001Z</time></trkpt><trkpt lat="45.771866409700436" lon="15.446277716128208"><ele>809.0</ele><time>2026-05-03T12:24:05.001Z</time></trkpt><trkpt lat="45.77185558703228" lon="15.446121376094958"><ele>809.0</ele><time>2026-05-03T12:24:07.001Z</time></trkpt><trkpt lat="45.77187651546172" lon="15.445984534793057"><ele>809.0</ele><time>2026-05-03T12:24:08.998Z</time></trkpt><trkpt lat="45.771925860334115" lon="15.445855425453"><ele>810.0</ele><time>2026-05-03T12:24:10.998Z</time></trkpt><trkpt lat="45.77201177245567" lon="15.445768117399304"><ele>811.0</ele><time>2026-05-03T12:24:12.998Z</time></trkpt><trkpt lat="45.772092928009044" lon="15.445678334402695"><ele>812.0</ele><time>2026-05-03T12:24:14.998Z</time></trkpt><trkpt lat="45.772182953539016" lon="15.445582932817594"><ele>813.0</ele><time>2026-05-03T12:24:16.998Z</time></trkpt><trkpt lat="45.772250604395445" lon="15.44555136752852"><ele>814.0</ele><time>2026-05-03T12:24:17.999Z</time></trkpt><trkpt lat="45.77231394034911" lon="15.445514711195147"><ele>814.0</ele><time>2026-05-03T12:24:18.999Z</time></trkpt><trkpt lat="45.77238042781196" lon="15.445470205357482"><ele>814.0</ele><time>2026-05-03T12:24:19.999Z</time></trkpt><trkpt lat="45.772439111043035" lon="15.445421958680264"><ele>814.0</ele><time>2026-05-03T12:24:20.999Z</time></trkpt><trkpt lat="45.77254871465847" lon="15.445351135051155"><ele>814.0</ele><time>2026-05-03T12:24:22.999Z</time></trkpt><trkpt lat="45.77265263449527" lon="15.445274890135947"><ele>814.0</ele><time>2026-05-03T12:24:24.999Z</time></trkpt><trkpt lat="45.772726568575315" lon="15.445152723306991"><ele>813.6</ele><time>2026-05-03T12:24:26.999Z</time></trkpt><trkpt lat="45.77281300259482" lon="15.445059446372683"><ele>813.2</ele><time>2026-05-03T12:24:28.999Z</time></trkpt><trkpt lat="45.77289511596658" lon="15.444959073421927"><ele>812.8000000000001</ele><time>2026-05-03T12:24:30.999Z</time></trkpt><trkpt lat="45.77298470240651" lon="15.44486984712608"><ele>812.4000000000001</ele><time>2026-05-03T12:24:32.999Z</time></trkpt><trkpt lat="45.773069055909176" lon="15.444781924155984"><ele>812.0</ele><time>2026-05-03T12:24:34.999Z</time></trkpt><trkpt lat="45.773148403611756" lon="15.444681673477401"><ele>814.0</ele><time>2026-05-03T12:24:36.999Z</time></trkpt><trkpt lat="45.773195583162575" lon="15.4446218341753"><ele>816.0</ele><time>2026-05-03T12:24:38Z</time></trkpt><trkpt lat="45.77327889578577" lon="15.444501124183125"><ele>818.0</ele><time>2026-05-03T12:24:40Z</time></trkpt><trkpt lat="45.77333327640739" lon="15.444356392779433"><ele>820.0</ele><time>2026-05-03T12:24:42Z</time></trkpt><trkpt lat="45.77342474261756" lon="15.444273219616626"><ele>822.0</ele><time>2026-05-03T12:24:44Z</time></trkpt><trkpt lat="45.773525571790294" lon="15.444207380052358"><ele>822.0</ele><time>2026-05-03T12:24:46Z</time></trkpt><trkpt lat="45.77361272397045" lon="15.444188835999645"><ele>822.0</ele><time>2026-05-03T12:24:48Z</time></trkpt><trkpt lat="45.773720405311785" lon="15.444176884965355"><ele>822.0</ele><time>2026-05-03T12:24:50Z</time></trkpt><trkpt lat="45.77381678131313" lon="15.444242575667676"><ele>822.0</ele><time>2026-05-03T12:24:52Z</time></trkpt><trkpt lat="45.77391467889035" lon="15.444273989098262"><ele>822.0</ele><time>2026-05-03T12:24:54Z</time></trkpt><trkpt lat="45.77401576207802" lon="15.444259432202273"><ele>822.0</ele><time>2026-05-03T12:24:56Z</time></trkpt><trkpt lat="45.77412873669224" lon="15.444198364573376"><ele>822.0</ele><time>2026-05-03T12:24:58Z</time></trkpt><trkpt lat="45.774189378448916" lon="15.44415182900119"><ele>822.0</ele><time>2026-05-03T12:24:59Z</time></trkpt><trkpt lat="45.77425226212181" lon="15.444087859097678"><ele>822.0</ele><time>2026-05-03T12:25:00Z</time></trkpt><trkpt lat="45.77431171427243" lon="15.444021248013751"><ele>822.0</ele><time>2026-05-03T12:25:01Z</time></trkpt><trkpt lat="45.774364439226694" lon="15.4439598059725"><ele>822.0</ele><time>2026-05-03T12:25:02Z</time></trkpt><trkpt lat="45.774424059217786" lon="15.443901252581517"><ele>822.3333333333334</ele><time>2026-05-03T12:25:03Z</time></trkpt><trkpt lat="45.77448090426655" lon="15.443860033134863"><ele>822.6666666666667</ele><time>2026-05-03T12:25:04Z</time></trkpt><trkpt lat="45.77456637283951" lon="15.443792690033685"><ele>823.0</ele><time>2026-05-03T12:25:06Z</time></trkpt><trkpt lat="45.77462132032138" lon="15.443694359075156"><ele>823.3333333333334</ele><time>2026-05-03T12:25:08Z</time></trkpt><trkpt lat="45.7747179299541" lon="15.443590592170022"><ele>823.6666666666667</ele><time>2026-05-03T12:25:10.001Z</time></trkpt><trkpt lat="45.77476942926045" lon="15.44352050324135"><ele>824.0</ele><time>2026-05-03T12:25:11.001Z</time></trkpt><trkpt lat="45.77481635211756" lon="15.443454998658776"><ele>824.4000000000001</ele><time>2026-05-03T12:25:12.001Z</time></trkpt><trkpt lat="45.77486489877535" lon="15.443387626228198"><ele>824.8</ele><time>2026-05-03T12:25:13.001Z</time></trkpt><trkpt lat="45.774952053929454" lon="15.443256264288497"><ele>825.2</ele><time>2026-05-03T12:25:15.001Z</time></trkpt><trkpt lat="45.774993598103" lon="15.443187636785522"><ele>825.5999999999999</ele><time>2026-05-03T12:25:16.001Z</time></trkpt><trkpt lat="45.77503936540187" lon="15.443121630490458"><ele>826.0</ele><time>2026-05-03T12:25:17.001Z</time></trkpt><trkpt lat="45.775134219807974" lon="15.44299080730498"><ele>825.7142857142857</ele><time>2026-05-03T12:25:19.001Z</time></trkpt><trkpt lat="45.775185195276265" lon="15.442930009444348"><ele>825.4285714285714</ele><time>2026-05-03T12:25:20.001Z</time></trkpt><trkpt lat="45.7752406482733" lon="15.442877188817329"><ele>825.1428571428571</ele><time>2026-05-03T12:25:21.001Z</time></trkpt><trkpt lat="45.775304228675814" lon="15.442827580531924"><ele>824.8571428571429</ele><time>2026-05-03T12:25:22.001Z</time></trkpt><trkpt lat="45.77536306242542" lon="15.44277474103125"><ele>824.5714285714286</ele><time>2026-05-03T12:25:23.001Z</time></trkpt><trkpt lat="45.775407837612846" lon="15.442702554432097"><ele>824.2857142857142</ele><time>2026-05-03T12:25:24.001Z</time></trkpt><trkpt lat="45.77544567043805" lon="15.442626956341028"><ele>824.0</ele><time>2026-05-03T12:25:25.001Z</time></trkpt><trkpt lat="45.775492336286185" lon="15.442552331978874"><ele>824.0000000000001</ele><time>2026-05-03T12:25:26.001Z</time></trkpt><trkpt lat="45.775573586105935" lon="15.442417847991528"><ele>824.0</ele><time>2026-05-03T12:25:28.001Z</time></trkpt><trkpt lat="45.77561653422609" lon="15.442345841638076"><ele>824.0</ele><time>2026-05-03T12:25:29.001Z</time></trkpt><trkpt lat="45.775661794736294" lon="15.442273493152328"><ele>824.0</ele><time>2026-05-03T12:25:30.001Z</time></trkpt><trkpt lat="45.775706324173925" lon="15.44219249864972"><ele>824.0000000000001</ele><time>2026-05-03T12:25:31.001Z</time></trkpt><trkpt lat="45.77574348544707" lon="15.442114946788001"><ele>824.0</ele><time>2026-05-03T12:25:32.001Z</time></trkpt><trkpt lat="45.775780233130305" lon="15.44201596770089"><ele>823.4285714285713</ele><time>2026-05-03T12:25:33.001Z</time></trkpt><trkpt lat="45.77581253988342" lon="15.441935125389728"><ele>822.8571428571429</ele><time>2026-05-03T12:25:34.001Z</time></trkpt><trkpt lat="45.77584305628156" lon="15.441842803086638"><ele>822.2857142857142</ele><time>2026-05-03T12:25:35.001Z</time></trkpt><trkpt lat="45.77587360788872" lon="15.441752482952735"><ele>821.7142857142857</ele><time>2026-05-03T12:25:36.001Z</time></trkpt><trkpt lat="45.77591112644154" lon="15.44166178154755"><ele>821.1428571428571</ele><time>2026-05-03T12:25:37.001Z</time></trkpt><trkpt lat="45.77593405122281" lon="15.441568641606116"><ele>820.5714285714286</ele><time>2026-05-03T12:25:38.001Z</time></trkpt><trkpt lat="45.77596480367714" lon="15.441487951897045"><ele>820.0</ele><time>2026-05-03T12:25:39.001Z</time></trkpt><trkpt lat="45.7759962314622" lon="15.441402535068171"><ele>821.1666666666666</ele><time>2026-05-03T12:25:40.001Z</time></trkpt><trkpt lat="45.776024333788875" lon="15.441313172405225"><ele>822.3333333333333</ele><time>2026-05-03T12:25:41.001Z</time></trkpt><trkpt lat="45.77605144197443" lon="15.441230843586304"><ele>823.5</ele><time>2026-05-03T12:25:42.001Z</time></trkpt><trkpt lat="45.776079866621004" lon="15.441140707951192"><ele>824.6666666666667</ele><time>2026-05-03T12:25:44.001Z</time></trkpt><trkpt lat="45.776126645696046" lon="15.441017174789645"><ele>825.8333333333334</ele><time>2026-05-03T12:25:57.002Z</time></trkpt><trkpt lat="45.776174483411594" lon="15.440894920723329"><ele>827.0</ele><time>2026-05-03T12:25:59.002Z</time></trkpt><trkpt lat="45.776226770613896" lon="15.440770050494102"><ele>827.0</ele><time>2026-05-03T12:26:01.002Z</time></trkpt><trkpt lat="45.77627970098613" lon="15.440629161447484"><ele>827.0</ele><time>2026-05-03T12:26:03.002Z</time></trkpt><trkpt lat="45.77634162026563" lon="15.440501065744066"><ele>827.0</ele><time>2026-05-03T12:26:05.002Z</time></trkpt><trkpt lat="45.776420367720526" lon="15.440386695824213"><ele>827.0</ele><time>2026-05-03T12:26:07.002Z</time></trkpt><trkpt lat="45.77651308402099" lon="15.440270236636508"><ele>827.6</ele><time>2026-05-03T12:26:09.002Z</time></trkpt><trkpt lat="45.77660359367855" lon="15.440158370711881"><ele>828.2</ele><time>2026-05-03T12:26:11.002Z</time></trkpt><trkpt lat="45.77669516051023" lon="15.440046059333365"><ele>828.8</ele><time>2026-05-03T12:26:13.002Z</time></trkpt><trkpt lat="45.77678500991246" lon="15.439927722060434"><ele>829.4</ele><time>2026-05-03T12:26:14.999Z</time></trkpt><trkpt lat="45.776838530713675" lon="15.439867160773886"><ele>830.0</ele><time>2026-05-03T12:26:15.999Z</time></trkpt><trkpt lat="45.776889850859305" lon="15.439808565378165"><ele>830.0</ele><time>2026-05-03T12:26:16.999Z</time></trkpt><trkpt lat="45.77693863032826" lon="15.43974622913362"><ele>830.0</ele><time>2026-05-03T12:26:17.999Z</time></trkpt><trkpt lat="45.77698629779021" lon="15.439686122154466"><ele>830.0</ele><time>2026-05-03T12:26:18.999Z</time></trkpt><trkpt lat="45.77708806647155" lon="15.43958095430155"><ele>830.0</ele><time>2026-05-03T12:26:20.999Z</time></trkpt><trkpt lat="45.77719782368701" lon="15.439488187549134"><ele>830.0</ele><time>2026-05-03T12:26:22.999Z</time></trkpt><trkpt lat="45.77729397308796" lon="15.43936985263923"><ele>829.8</ele><time>2026-05-03T12:26:24.999Z</time></trkpt><trkpt lat="45.77734659099433" lon="15.439312967456914"><ele>829.6</ele><time>2026-05-03T12:26:25.999Z</time></trkpt><trkpt lat="45.77739381918288" lon="15.439250437076838"><ele>829.4000000000001</ele><time>2026-05-03T12:26:26.999Z</time></trkpt><trkpt lat="45.77748215143699" lon="15.439132385871796"><ele>829.2</ele><time>2026-05-03T12:26:28.999Z</time></trkpt><trkpt lat="45.77758102454523" lon="15.4390790663167"><ele>829.0</ele><time>2026-05-03T12:26:30.999Z</time></trkpt><trkpt lat="45.77767218237058" lon="15.439017155369612"><ele>829.75</ele><time>2026-05-03T12:26:32.999Z</time></trkpt><trkpt lat="45.77777654311828" lon="15.438990653738847"><ele>830.5</ele><time>2026-05-03T12:26:35Z</time></trkpt><trkpt lat="45.7778965391078" lon="15.438977395841967"><ele>831.25</ele><time>2026-05-03T12:26:37Z</time></trkpt><trkpt lat="45.77801323014544" lon="15.438967185151999"><ele>832.0</ele><time>2026-05-03T12:26:39Z</time></trkpt><trkpt lat="45.77811965878259" lon="15.438938917045641"><ele>832.0</ele><time>2026-05-03T12:26:41Z</time></trkpt><trkpt lat="45.77821250904396" lon="15.438906815301001"><ele>832.0</ele><time>2026-05-03T12:26:43Z</time></trkpt><trkpt lat="45.778318436410615" lon="15.438872916134107"><ele>832.0</ele><time>2026-05-03T12:26:45Z</time></trkpt><trkpt lat="45.778426905024546" lon="15.438822954610488"><ele>832.0</ele><time>2026-05-03T12:26:47Z</time></trkpt><trkpt lat="45.77853343597396" lon="15.438762706692142"><ele>832.0</ele><time>2026-05-03T12:26:49Z</time></trkpt><trkpt lat="45.77864374677926" lon="15.438687915868334"><ele>832.6666666666666</ele><time>2026-05-03T12:26:51Z</time></trkpt><trkpt lat="45.778690834751494" lon="15.438627311193724"><ele>833.3333333333333</ele><time>2026-05-03T12:26:52Z</time></trkpt><trkpt lat="45.77872954076377" lon="15.438551328686131"><ele>834.0</ele><time>2026-05-03T12:26:53Z</time></trkpt><trkpt lat="45.778824996605294" lon="15.43843449962318"><ele>834.6666666666667</ele><time>2026-05-03T12:26:55Z</time></trkpt><trkpt lat="45.77886856978607" lon="15.438367242830484"><ele>835.3333333333334</ele><time>2026-05-03T12:26:56Z</time></trkpt><trkpt lat="45.7789148737344" lon="15.438303934225486"><ele>836.0</ele><time>2026-05-03T12:26:57Z</time></trkpt><trkpt lat="45.77900428457142" lon="15.438179020455904"><ele>836.0</ele><time>2026-05-03T12:26:59Z</time></trkpt><trkpt lat="45.779086261554035" lon="15.438081587148941"><ele>836.0</ele><time>2026-05-03T12:27:01Z</time></trkpt><trkpt lat="45.77915729314457" lon="15.437968537678461"><ele>836.0</ele><time>2026-05-03T12:27:03.001Z</time></trkpt><trkpt lat="45.77923191799932" lon="15.437859991627812"><ele>836.0</ele><time>2026-05-03T12:27:05.001Z</time></trkpt><trkpt lat="45.77930275969232" lon="15.437755468130472"><ele>836.0</ele><time>2026-05-03T12:27:07.001Z</time></trkpt><trkpt lat="45.77937582891568" lon="15.437639522466846"><ele>839.5999999999999</ele><time>2026-05-03T12:27:09.001Z</time></trkpt><trkpt lat="45.77945119673959" lon="15.437515274443061"><ele>843.2</ele><time>2026-05-03T12:27:11.001Z</time></trkpt><trkpt lat="45.77952742072538" lon="15.437415295416411"><ele>846.8000000000001</ele><time>2026-05-03T12:27:13.001Z</time></trkpt><trkpt lat="45.77961471007536" lon="15.43732899360669"><ele>850.4000000000001</ele><time>2026-05-03T12:27:15.001Z</time></trkpt><trkpt lat="45.77972076224602" lon="15.437238961473597"><ele>854.0</ele><time>2026-05-03T12:27:17.001Z</time></trkpt><trkpt lat="45.779832266852516" lon="15.437168672276742"><ele>854.6</ele><time>2026-05-03T12:27:19.001Z</time></trkpt><trkpt lat="45.779939931794324" lon="15.43711441084226"><ele>855.2</ele><time>2026-05-03T12:27:21.001Z</time></trkpt><trkpt lat="45.78004399776053" lon="15.437049786249425"><ele>855.8000000000001</ele><time>2026-05-03T12:27:23.001Z</time></trkpt><trkpt lat="45.78015889508181" lon="15.437021603907459"><ele>856.4000000000001</ele><time>2026-05-03T12:27:25.001Z</time></trkpt><trkpt lat="45.78025183553347" lon="15.436981275101592"><ele>857.0</ele><time>2026-05-03T12:27:27.001Z</time></trkpt><trkpt lat="45.780353916778296" lon="15.436934680895918"><ele>857.0</ele><time>2026-05-03T12:27:29.001Z</time></trkpt><trkpt lat="45.780474126355756" lon="15.436899934714866"><ele>857.0</ele><time>2026-05-03T12:27:31.001Z</time></trkpt><trkpt lat="45.780580148412824" lon="15.436855050705454"><ele>857.0</ele><time>2026-05-03T12:27:33.001Z</time></trkpt><trkpt lat="45.78067651702944" lon="15.436803211565996"><ele>857.0</ele><time>2026-05-03T12:27:35.001Z</time></trkpt><trkpt lat="45.78078423798166" lon="15.436768901830789"><ele>857.0</ele><time>2026-05-03T12:27:37.002Z</time></trkpt><trkpt lat="45.78088907542717" lon="15.436733930224635"><ele>857.0</ele><time>2026-05-03T12:27:39.002Z</time></trkpt><trkpt lat="45.780996485110855" lon="15.436721654707954"><ele>857.0</ele><time>2026-05-03T12:27:41.002Z</time></trkpt><trkpt lat="45.78109104711934" lon="15.4366761931515"><ele>857.0</ele><time>2026-05-03T12:27:43.002Z</time></trkpt><trkpt lat="45.78120827540446" lon="15.436640965237743"><ele>857.0</ele><time>2026-05-03T12:27:45.002Z</time></trkpt><trkpt lat="45.78132323129497" lon="15.43660873118022"><ele>857.0</ele><time>2026-05-03T12:27:47.002Z</time></trkpt><trkpt lat="45.781403105579265" lon="15.43658187344507"><ele>857.8</ele><time>2026-05-03T12:27:49.002Z</time></trkpt><trkpt lat="45.78150973183349" lon="15.436485384622046"><ele>858.6</ele><time>2026-05-03T12:27:51.002Z</time></trkpt><trkpt lat="45.78154729325977" lon="15.43638867065744"><ele>859.3999999999999</ele><time>2026-05-03T12:27:52.002Z</time></trkpt><trkpt lat="45.781545051173346" lon="15.4362272730247"><ele>860.1999999999999</ele><time>2026-05-03T12:27:54.002Z</time></trkpt><trkpt lat="45.78143148975479" lon="15.436205904711203"><ele>861.0</ele><time>2026-05-03T12:27:55.002Z</time></trkpt><trkpt lat="45.7813604265846" lon="15.436183918220351"><ele>863.3333333333333</ele><time>2026-05-03T12:27:56.002Z</time></trkpt><trkpt lat="45.78124080019677" lon="15.436137479118663"><ele>865.6666666666666</ele><time>2026-05-03T12:27:58.002Z</time></trkpt><trkpt lat="45.781128835209515" lon="15.436122083193403"><ele>868.0</ele><time>2026-05-03T12:28:00.002Z</time></trkpt><trkpt lat="45.781399289297276" lon="15.433326214020743"><ele>875.2</ele><time>2026-05-03T12:28:58Z</time></trkpt><trkpt lat="45.78143984245293" lon="15.433238011074986"><ele>882.4</ele><time>2026-05-03T12:28:59Z</time></trkpt><trkpt lat="45.78153476302121" lon="15.433166786373112"><ele>889.6000000000001</ele><time>2026-05-03T12:29:01.001Z</time></trkpt><trkpt lat="45.78159569004599" lon="15.433134922792801"><ele>896.8000000000001</ele><time>2026-05-03T12:29:02.001Z</time></trkpt><trkpt lat="45.78170143668636" lon="15.43309199858119"><ele>904.0</ele><time>2026-05-03T12:29:04.001Z</time></trkpt><trkpt lat="45.781818048505116" lon="15.433076012739429"><ele>905.0</ele><time>2026-05-03T12:29:06.001Z</time></trkpt><trkpt lat="45.7819333691429" lon="15.433020134865606"><ele>906.0</ele><time>2026-05-03T12:29:08.001Z</time></trkpt><trkpt lat="45.782022455740865" lon="15.432942786584386"><ele>907.0</ele><time>2026-05-03T12:29:10.001Z</time></trkpt><trkpt lat="45.7822287773037" lon="15.43290011775055"><ele>908.0</ele><time>2026-05-03T12:29:14.001Z</time></trkpt><trkpt lat="45.78234971263639" lon="15.432925361387964"><ele>908.0000000000001</ele><time>2026-05-03T12:29:16.001Z</time></trkpt><trkpt lat="45.78245409860002" lon="15.432959082212427"><ele>908.0</ele><time>2026-05-03T12:29:18.001Z</time></trkpt><trkpt lat="45.78256272482705" lon="15.432978334349485"><ele>908.0</ele><time>2026-05-03T12:29:20.001Z</time></trkpt><trkpt lat="45.78262870129364" lon="15.432999795102585"><ele>908.0</ele><time>2026-05-03T12:29:21.001Z</time></trkpt><trkpt lat="45.78269779067869" lon="15.433003362336027"><ele>908.0000000000001</ele><time>2026-05-03T12:29:22.001Z</time></trkpt><trkpt lat="45.7827607320545" lon="15.432992137298756"><ele>908.0</ele><time>2026-05-03T12:29:23.001Z</time></trkpt><trkpt lat="45.782827108282206" lon="15.432983569903367"><ele>909.75</ele><time>2026-05-03T12:29:24.001Z</time></trkpt><trkpt lat="45.78294256695064" lon="15.432996428907648"><ele>911.5</ele><time>2026-05-03T12:29:26.001Z</time></trkpt><trkpt lat="45.78306321626775" lon="15.433009876416142"><ele>913.25</ele><time>2026-05-03T12:29:28.001Z</time></trkpt><trkpt lat="45.783175250669416" lon="15.43300646116974"><ele>915.0</ele><time>2026-05-03T12:29:30.001Z</time></trkpt><trkpt lat="45.783305609082284" lon="15.43299729551964"><ele>918.6666666666667</ele><time>2026-05-03T12:29:32.002Z</time></trkpt><trkpt lat="45.78354384553912" lon="15.433018921994194"><ele>922.3333333333334</ele><time>2026-05-03T12:29:36.002Z</time></trkpt><trkpt lat="45.78365418867994" lon="15.433026854490347"><ele>926.0</ele><time>2026-05-03T12:29:38.002Z</time></trkpt><trkpt lat="45.783783064190395" lon="15.433029558531892"><ele>926.0000000000001</ele><time>2026-05-03T12:29:40.002Z</time></trkpt><trkpt lat="45.78388501441446" lon="15.433033186209396"><ele>926.0</ele><time>2026-05-03T12:29:42.002Z</time></trkpt><trkpt lat="45.783949477593374" lon="15.433041116009596"><ele>926.0</ele><time>2026-05-03T12:29:43.002Z</time></trkpt><trkpt lat="45.784033275280116" lon="15.43304063756516"><ele>926.0</ele><time>2026-05-03T12:29:45.002Z</time></trkpt><trkpt lat="45.78411723301587" lon="15.433075545013333"><ele>926.0000000000001</ele><time>2026-05-03T12:29:48.002Z</time></trkpt><trkpt lat="45.78418644657692" lon="15.433092383752085"><ele>926.0</ele><time>2026-05-03T12:29:50.002Z</time></trkpt><trkpt lat="45.784274126564355" lon="15.433119248416046"><ele>926.75</ele><time>2026-05-03T12:31:33.002Z</time></trkpt><trkpt lat="45.784440199088884" lon="15.433174793043019"><ele>927.5</ele><time>2026-05-03T12:31:46.002Z</time></trkpt><trkpt lat="45.784548969439726" lon="15.433207029892491"><ele>928.25</ele><time>2026-05-03T12:31:48.002Z</time></trkpt><trkpt lat="45.784654322882425" lon="15.43320616740865"><ele>929.0</ele><time>2026-05-03T12:31:50.002Z</time></trkpt><trkpt lat="45.78473331269177" lon="15.43317740090197"><ele>929.0</ele><time>2026-05-03T12:31:52.002Z</time></trkpt><trkpt lat="45.78485831618043" lon="15.433161500489657"><ele>929.0</ele><time>2026-05-03T12:31:54.002Z</time></trkpt><trkpt lat="45.78502128254859" lon="15.433134157622495"><ele>929.0</ele><time>2026-05-03T12:31:57.002Z</time></trkpt><trkpt lat="45.78508460170321" lon="15.433122062919763"><ele>929.0</ele><time>2026-05-03T12:31:58.002Z</time></trkpt><trkpt lat="45.78521433076024" lon="15.433111627405951"><ele>929.1666666666667</ele><time>2026-05-03T12:32:00.002Z</time></trkpt><trkpt lat="45.785279751505904" lon="15.433122345092105"><ele>929.3333333333334</ele><time>2026-05-03T12:32:01.002Z</time></trkpt><trkpt lat="45.78538950954191" lon="15.433109057628366"><ele>929.5</ele><time>2026-05-03T12:32:03.002Z</time></trkpt><trkpt lat="45.7854803516791" lon="15.433094623970595"><ele>929.6666666666667</ele><time>2026-05-03T12:32:05.002Z</time></trkpt><trkpt lat="45.78555652708798" lon="15.433087836237725"><ele>929.8333333333334</ele><time>2026-05-03T12:32:07.003Z</time></trkpt><trkpt lat="45.78564184414317" lon="15.433091105543316"><ele>930.0</ele><time>2026-05-03T12:32:09.003Z</time></trkpt><trkpt lat="45.785726689842" lon="15.433078738016652"><ele>930.0</ele><time>2026-05-03T12:32:11.003Z</time></trkpt><trkpt lat="45.78582436760303" lon="15.433074643743526"><ele>930.0</ele><time>2026-05-03T12:32:14.003Z</time></trkpt><trkpt lat="45.78589679882717" lon="15.433084664453508"><ele>930.0</ele><time>2026-05-03T12:32:16.003Z</time></trkpt><trkpt lat="45.78605640560932" lon="15.433083878351834"><ele>930.0</ele><time>2026-05-03T12:32:23.003Z</time></trkpt><trkpt lat="45.786140310473364" lon="15.433085297254495"><ele>930.0</ele><time>2026-05-03T12:32:25.003Z</time></trkpt><trkpt lat="45.78622225735321" lon="15.433073132663788"><ele>928.8</ele><time>2026-05-03T12:32:27.003Z</time></trkpt><trkpt lat="45.786308564842884" lon="15.433065740735227"><ele>927.6</ele><time>2026-05-03T12:32:29.003Z</time></trkpt><trkpt lat="45.78640039153599" lon="15.433099200580406"><ele>926.4000000000001</ele><time>2026-05-03T12:32:31.003Z</time></trkpt><trkpt lat="45.786476428351506" lon="15.433103590218648"><ele>925.2</ele><time>2026-05-03T12:32:33Z</time></trkpt><trkpt lat="45.78654614557481" lon="15.433079350327958"><ele>924.0</ele><time>2026-05-03T12:32:59Z</time></trkpt><trkpt lat="45.78674129938676" lon="15.433205983321795"><ele>924.0</ele><time>2026-05-03T12:33:04.001Z</time></trkpt><trkpt lat="45.786856355941595" lon="15.433280868396595"><ele>924.0</ele><time>2026-05-03T12:33:06.001Z</time></trkpt><trkpt lat="45.78691329306725" lon="15.433333918572488"><ele>924.0</ele><time>2026-05-03T12:33:07.001Z</time></trkpt><trkpt lat="45.786971604804705" lon="15.433382182752698"><ele>924.0</ele><time>2026-05-03T12:33:08.001Z</time></trkpt><trkpt lat="45.787028145797926" lon="15.433434899521323"><ele>924.0</ele><time>2026-05-03T12:33:09.001Z</time></trkpt><trkpt lat="45.78708338460558" lon="15.433491123107284"><ele>924.0</ele><time>2026-05-03T12:33:10.001Z</time></trkpt><trkpt lat="45.787137485443004" lon="15.433549738131141"><ele>924.0</ele><time>2026-05-03T12:33:11.001Z</time></trkpt><trkpt lat="45.78718858142294" lon="15.433602642943452"><ele>924.0</ele><time>2026-05-03T12:33:12.001Z</time></trkpt><trkpt lat="45.78723533095032" lon="15.433664929265658"><ele>924.0</ele><time>2026-05-03T12:33:13.001Z</time></trkpt><trkpt lat="45.78728433494974" lon="15.433735019689252"><ele>924.0</ele><time>2026-05-03T12:33:14.001Z</time></trkpt><trkpt lat="45.78733390801334" lon="15.43380061523716"><ele>924.0</ele><time>2026-05-03T12:33:15.001Z</time></trkpt><trkpt lat="45.78739267632576" lon="15.433861004411574"><ele>924.0</ele><time>2026-05-03T12:33:16.001Z</time></trkpt><trkpt lat="45.78750368661824" lon="15.433968514939039"><ele>923.75</ele><time>2026-05-03T12:33:18.001Z</time></trkpt><trkpt lat="45.78759864546498" lon="15.434069500718998"><ele>923.5</ele><time>2026-05-03T12:33:20.001Z</time></trkpt><trkpt lat="45.78776241379372" lon="15.434168854660635"><ele>923.25</ele><time>2026-05-03T12:33:24.001Z</time></trkpt><trkpt lat="45.78782537125189" lon="15.434246124143321"><ele>923.0</ele><time>2026-05-03T12:33:26.001Z</time></trkpt><trkpt lat="45.78791946732719" lon="15.434307491091626"><ele>923.0</ele><time>2026-05-03T12:33:28.001Z</time></trkpt><trkpt lat="45.788025693808855" lon="15.434390567901488"><ele>923.0</ele><time>2026-05-03T12:33:30.001Z</time></trkpt><trkpt lat="45.78814411620097" lon="15.434462906591687"><ele>923.0</ele><time>2026-05-03T12:33:32.001Z</time></trkpt><trkpt lat="45.78824689436323" lon="15.434549813022963"><ele>923.0</ele><time>2026-05-03T12:33:34.001Z</time></trkpt><trkpt lat="45.7883409957216" lon="15.434615862604852"><ele>923.0</ele><time>2026-05-03T12:33:36.001Z</time></trkpt><trkpt lat="45.78843494805449" lon="15.434680006254565"><ele>923.0</ele><time>2026-05-03T12:33:38.002Z</time></trkpt><trkpt lat="45.78853098014205" lon="15.434781136148995"><ele>923.0</ele><time>2026-05-03T12:33:40.002Z</time></trkpt><trkpt lat="45.78858873223598" lon="15.434825458510515"><ele>923.0</ele><time>2026-05-03T12:33:41.002Z</time></trkpt><trkpt lat="45.78871204191435" lon="15.434908656316166"><ele>923.0</ele><time>2026-05-03T12:33:43.002Z</time></trkpt><trkpt lat="45.78877704822693" lon="15.434961583863181"><ele>923.0000000000001</ele><time>2026-05-03T12:33:44.002Z</time></trkpt><trkpt lat="45.7888434608941" lon="15.43500644197817"><ele>923.0</ele><time>2026-05-03T12:33:45.002Z</time></trkpt><trkpt lat="45.7889378669276" lon="15.43506000898469"><ele>923.0</ele><time>2026-05-03T12:33:47.002Z</time></trkpt><trkpt lat="45.78902413429542" lon="15.435073728753192"><ele>923.0</ele><time>2026-05-03T12:33:49.002Z</time></trkpt><trkpt lat="45.789090399499926" lon="15.435009044159484"><ele>923.0000000000001</ele><time>2026-05-03T12:33:52.002Z</time></trkpt><trkpt lat="45.78912694234781" lon="15.434929657991812"><ele>923.0</ele><time>2026-05-03T12:34:06.002Z</time></trkpt><trkpt lat="45.789237491157124" lon="15.434773707912965"><ele>923.0</ele><time>2026-05-03T12:34:10.002Z</time></trkpt><trkpt lat="45.78932106793716" lon="15.434719391809942"><ele>923.0</ele><time>2026-05-03T12:34:12.003Z</time></trkpt><trkpt lat="45.78942030763888" lon="15.43468330091053"><ele>923.0</ele><time>2026-05-03T12:34:14.003Z</time></trkpt><trkpt lat="45.789510985194994" lon="15.434688122490522"><ele>923.0</ele><time>2026-05-03T12:34:16.003Z</time></trkpt><trkpt lat="45.78960537947151" lon="15.434689967485742"><ele>923.0</ele><time>2026-05-03T12:34:18.003Z</time></trkpt><trkpt lat="45.78971333052892" lon="15.434726945987482"><ele>924.0</ele><time>2026-05-03T12:34:20.003Z</time></trkpt><trkpt lat="45.789806255954275" lon="15.43475642795914"><ele>925.0</ele><time>2026-05-03T12:34:22.003Z</time></trkpt><trkpt lat="45.789893579506376" lon="15.434776508808518"><ele>926.0</ele><time>2026-05-03T12:34:24.003Z</time></trkpt><trkpt lat="45.7900023577416" lon="15.434764075098773"><ele>927.0</ele><time>2026-05-03T12:34:26.003Z</time></trkpt><trkpt lat="45.79011784867343" lon="15.434754152394328"><ele>928.0</ele><time>2026-05-03T12:34:28.003Z</time></trkpt><trkpt lat="45.79027955343821" lon="15.434699879895264"><ele>928.2</ele><time>2026-05-03T12:34:31.003Z</time></trkpt><trkpt lat="45.79039747828554" lon="15.434662941484982"><ele>928.4</ele><time>2026-05-03T12:34:33.003Z</time></trkpt><trkpt lat="45.790523650399344" lon="15.434609443818868"><ele>928.6000000000001</ele><time>2026-05-03T12:34:35.003Z</time></trkpt><trkpt lat="45.79059180272863" lon="15.434572062125476"><ele>928.8000000000001</ele><time>2026-05-03T12:34:36.003Z</time></trkpt><trkpt lat="45.790665678045634" lon="15.43456339516135"><ele>929.0</ele><time>2026-05-03T12:34:37.003Z</time></trkpt><trkpt lat="45.7907337486816" lon="15.434533916760024"><ele>929.0</ele><time>2026-05-03T12:34:38Z</time></trkpt><trkpt lat="45.79085268857107" lon="15.43452185224225"><ele>929.0000000000001</ele><time>2026-05-03T12:34:40Z</time></trkpt><trkpt lat="45.79096331453048" lon="15.434492319347923"><ele>929.0000000000001</ele><time>2026-05-03T12:34:42Z</time></trkpt><trkpt lat="45.79103150655872" lon="15.43448506009494"><ele>929.0</ele><time>2026-05-03T12:34:43Z</time></trkpt><trkpt lat="45.79109320078491" lon="15.43446422835689"><ele>929.0</ele><time>2026-05-03T12:34:44Z</time></trkpt><trkpt lat="45.79119243192621" lon="15.434451820990382"><ele>927.25</ele><time>2026-05-03T12:34:46Z</time></trkpt><trkpt lat="45.791299751824795" lon="15.434435255818062"><ele>925.5</ele><time>2026-05-03T12:34:48Z</time></trkpt><trkpt lat="45.79137543810097" lon="15.434419799336926"><ele>923.75</ele><time>2026-05-03T12:34:50Z</time></trkpt><trkpt lat="45.791543623360575" lon="15.434371092233695"><ele>922.0</ele><time>2026-05-03T12:34:54Z</time></trkpt><trkpt lat="45.79165943864122" lon="15.434348831035829"><ele>922.0</ele><time>2026-05-03T12:34:56Z</time></trkpt><trkpt lat="45.791759845301584" lon="15.43437844408459"><ele>922.0</ele><time>2026-05-03T12:34:59Z</time></trkpt><trkpt lat="45.79183899458109" lon="15.43445226375222"><ele>922.0</ele><time>2026-05-03T12:35:01Z</time></trkpt><trkpt lat="45.79192964031981" lon="15.434508995437026"><ele>922.0</ele><time>2026-05-03T12:35:03Z</time></trkpt><trkpt lat="45.792009210388066" lon="15.434584368347203"><ele>922.0</ele><time>2026-05-03T12:35:05Z</time></trkpt><trkpt lat="45.7920684012673" lon="15.434670814365711"><ele>919.6</ele><time>2026-05-03T12:35:07.001Z</time></trkpt><trkpt lat="45.792123627864555" lon="15.434739349436356"><ele>917.2</ele><time>2026-05-03T12:35:09.001Z</time></trkpt><trkpt lat="45.792208271593324" lon="15.434804233181818"><ele>914.8</ele><time>2026-05-03T12:35:11.001Z</time></trkpt><trkpt lat="45.79233150160662" lon="15.434947581224442"><ele>912.4</ele><time>2026-05-03T12:35:17.001Z</time></trkpt><trkpt lat="45.79240509677752" lon="15.434886586519685"><ele>910.0</ele><time>2026-05-03T12:35:21.001Z</time></trkpt><trkpt lat="45.79241105090986" lon="15.434771208542516"><ele>909.5</ele><time>2026-05-03T12:35:25.001Z</time></trkpt><trkpt lat="45.79239199800024" lon="15.434626228098686"><ele>909.0</ele><time>2026-05-03T12:35:28.001Z</time></trkpt><trkpt lat="45.79235144290018" lon="15.434490424181641"><ele>908.5</ele><time>2026-05-03T12:35:30.001Z</time></trkpt><trkpt lat="45.79231741316922" lon="15.434391521995579"><ele>908.0</ele><time>2026-05-03T12:35:32.001Z</time></trkpt><trkpt lat="45.79224218991269" lon="15.434156542278206"><ele>908.0</ele><time>2026-05-03T12:35:38.001Z</time></trkpt><trkpt lat="45.7922515794464" lon="15.434032205631851"><ele>908.0</ele><time>2026-05-03T12:35:40.001Z</time></trkpt><trkpt lat="45.792276223882716" lon="15.433909433244137"><ele>908.0</ele><time>2026-05-03T12:35:42.002Z</time></trkpt><trkpt lat="45.792332791894296" lon="15.433776461082365"><ele>908.0</ele><time>2026-05-03T12:35:44.002Z</time></trkpt><trkpt lat="45.792404180003324" lon="15.43368186788311"><ele>908.0</ele><time>2026-05-03T12:35:46.002Z</time></trkpt><trkpt lat="45.7924676098218" lon="15.433605672349314"><ele>906.5</ele><time>2026-05-03T12:35:48.002Z</time></trkpt><trkpt lat="45.79254412463022" lon="15.433501476883805"><ele>905.0</ele><time>2026-05-03T12:35:50.002Z</time></trkpt><trkpt lat="45.792634455058774" lon="15.433396664020552"><ele>903.5</ele><time>2026-05-03T12:35:52.002Z</time></trkpt><trkpt lat="45.792730937425716" lon="15.433286160978591"><ele>902.0</ele><time>2026-05-03T12:35:54.002Z</time></trkpt><trkpt lat="45.79286430583142" lon="15.433105353918167"><ele>901.2</ele><time>2026-05-03T12:35:57.002Z</time></trkpt><trkpt lat="45.79293101696489" lon="15.433004287711004"><ele>900.4000000000001</ele><time>2026-05-03T12:35:59.002Z</time></trkpt><trkpt lat="45.79299436267221" lon="15.432932306670308"><ele>899.5999999999999</ele><time>2026-05-03T12:36:01.002Z</time></trkpt><trkpt lat="45.79304133639" lon="15.432837181280155"><ele>898.8</ele><time>2026-05-03T12:36:08.002Z</time></trkpt><trkpt lat="45.79311637848481" lon="15.432706490820031"><ele>898.0</ele><time>2026-05-03T12:36:11.002Z</time></trkpt><trkpt lat="45.793195937636355" lon="15.43259231411516"><ele>898.0</ele><time>2026-05-03T12:36:13.002Z</time></trkpt><trkpt lat="45.79324608720408" lon="15.432535675270199"><ele>898.0</ele><time>2026-05-03T12:36:14.002Z</time></trkpt><trkpt lat="45.79332628895158" lon="15.432417394186865"><ele>898.0</ele><time>2026-05-03T12:36:16.002Z</time></trkpt><trkpt lat="45.79346749287586" lon="15.432223617394918"><ele>898.0</ele><time>2026-05-03T12:36:20.003Z</time></trkpt><trkpt lat="45.79351500823185" lon="15.432131750638895"><ele>896.2</ele><time>2026-05-03T12:36:22.003Z</time></trkpt><trkpt lat="45.793547405871756" lon="15.432034603728093"><ele>894.4</ele><time>2026-05-03T12:39:56.002Z</time></trkpt><trkpt lat="45.793682465297486" lon="15.431896112111023"><ele>892.6000000000001</ele><time>2026-05-03T12:40:15.002Z</time></trkpt><trkpt lat="45.79373151664714" lon="15.431828302836262"><ele>890.8000000000001</ele><time>2026-05-03T12:40:17.002Z</time></trkpt><trkpt lat="45.79385497049338" lon="15.43175733679255"><ele>889.0</ele><time>2026-05-03T12:40:21.002Z</time></trkpt><trkpt lat="45.79393552547949" lon="15.431748538724364"><ele>888.9999999999999</ele><time>2026-05-03T12:40:23.002Z</time></trkpt><trkpt lat="45.7940130163345" lon="15.431713209061485"><ele>889.0</ele><time>2026-05-03T12:40:25.002Z</time></trkpt><trkpt lat="45.794094177272584" lon="15.431659106991312"><ele>889.0</ele><time>2026-05-03T12:40:27.003Z</time></trkpt><trkpt lat="45.79416028457487" lon="15.431599758294457"><ele>889.0</ele><time>2026-05-03T12:40:29.003Z</time></trkpt><trkpt lat="45.79421305836101" lon="15.43154141962237"><ele>888.9999999999999</ele><time>2026-05-03T12:40:31.003Z</time></trkpt><trkpt lat="45.79426420716171" lon="15.431484332762524"><ele>889.0</ele><time>2026-05-03T12:40:33.003Z</time></trkpt><trkpt lat="45.79432300175585" lon="15.431406340020207"><ele>890.0</ele><time>2026-05-03T12:40:36.003Z</time></trkpt><trkpt lat="45.79438210475547" lon="15.43131400788935"><ele>891.0</ele><time>2026-05-03T12:40:38.003Z</time></trkpt><trkpt lat="45.79449965072023" lon="15.43111673212177"><ele>892.0</ele><time>2026-05-03T12:40:42.003Z</time></trkpt><trkpt lat="45.79455663603111" lon="15.431011069001345"><ele>893.0</ele><time>2026-05-03T12:40:44.003Z</time></trkpt><trkpt lat="45.79459817908432" lon="15.43089540547577"><ele>893.0</ele><time>2026-05-03T12:40:46.003Z</time></trkpt><trkpt lat="45.794626534871064" lon="15.430763623973997"><ele>893.0</ele><time>2026-05-03T12:40:48.003Z</time></trkpt><trkpt lat="45.794623070519876" lon="15.430619676441138"><ele>893.0</ele><time>2026-05-03T12:40:50.003Z</time></trkpt><trkpt lat="45.794608080614864" lon="15.430489108059858"><ele>893.0</ele><time>2026-05-03T12:40:52.003Z</time></trkpt><trkpt lat="45.7945831899813" lon="15.430363120507167"><ele>893.0</ele><time>2026-05-03T12:40:54.003Z</time></trkpt><trkpt lat="45.79455464341035" lon="15.430233195422554"><ele>893.0</ele><time>2026-05-03T12:40:56Z</time></trkpt><trkpt lat="45.794542716020445" lon="15.430128229714889"><ele>893.0</ele><time>2026-05-03T12:40:58Z</time></trkpt><trkpt lat="45.794542566412936" lon="15.429989403160864"><ele>893.0</ele><time>2026-05-03T12:41:00Z</time></trkpt><trkpt lat="45.794585495096676" lon="15.42971383038596"><ele>893.0</ele><time>2026-05-03T12:41:04Z</time></trkpt><trkpt lat="45.794637141659656" lon="15.429590306791471"><ele>893.0</ele><time>2026-05-03T12:41:06Z</time></trkpt><trkpt lat="45.79468576699532" lon="15.42946387659312"><ele>893.0</ele><time>2026-05-03T12:41:08Z</time></trkpt><trkpt lat="45.794742805443256" lon="15.429331940058336"><ele>893.0</ele><time>2026-05-03T12:41:10Z</time></trkpt><trkpt lat="45.79477984580288" lon="15.429199026695892"><ele>893.0</ele><time>2026-05-03T12:41:12Z</time></trkpt><trkpt lat="45.7948158853946" lon="15.429074558729559"><ele>893.0</ele><time>2026-05-03T12:41:14Z</time></trkpt><trkpt lat="45.794874862257075" lon="15.428963123104882"><ele>893.0</ele><time>2026-05-03T12:41:16Z</time></trkpt><trkpt lat="45.79493629931181" lon="15.428837377321223"><ele>893.0</ele><time>2026-05-03T12:41:18Z</time></trkpt><trkpt lat="45.79501542143431" lon="15.428714232075983"><ele>893.0</ele><time>2026-05-03T12:41:20Z</time></trkpt><trkpt lat="45.79507591801511" lon="15.428631723184743"><ele>893.0</ele><time>2026-05-03T12:41:22Z</time></trkpt><trkpt lat="45.79518278157455" lon="15.428492881169435"><ele>893.5999999999999</ele><time>2026-05-03T12:41:26.001Z</time></trkpt><trkpt lat="45.79525003160319" lon="15.428396573976343"><ele>894.1999999999999</ele><time>2026-05-03T12:41:28.001Z</time></trkpt><trkpt lat="45.795285387935934" lon="15.428274737873831"><ele>894.8</ele><time>2026-05-03T12:41:30.001Z</time></trkpt><trkpt lat="45.79530139966884" lon="15.428127499078983"><ele>895.4</ele><time>2026-05-03T12:41:32.001Z</time></trkpt><trkpt lat="45.79527944273465" lon="15.427963195481789"><ele>896.0</ele><time>2026-05-03T12:41:34.001Z</time></trkpt><trkpt lat="45.795234226357415" lon="15.42784753727156"><ele>896.0</ele><time>2026-05-03T12:41:36.001Z</time></trkpt><trkpt lat="45.79518810222452" lon="15.427728751545459"><ele>896.0</ele><time>2026-05-03T12:41:38.001Z</time></trkpt><trkpt lat="45.795168752011975" lon="15.427641813890816"><ele>892.0</ele><time>2026-05-03T12:41:39.001Z</time></trkpt><trkpt lat="45.79515572599197" lon="15.427486769900435"><ele>892.0</ele><time>2026-05-03T12:41:41.001Z</time></trkpt><trkpt lat="45.79514296617671" lon="15.427337573565651"><ele>892.0</ele><time>2026-05-03T12:41:43.001Z</time></trkpt></trkseg></trk></gpx>